Time;durP1;ratioP1;P1;durP2;ratioP2;P2;SDS_P1;SDS_P2;PMS_P1;PMS_P2;Temp;Humidity;BMP_temperature;BMP_pressure;BME280_temperature;BME280_humidity;BME280_pressure;Samples;Min_cycle;Max_cycle;Signal;HPM_P1;HPM_P2
2021/04/11 00:02:21;;;;;;;;;;;10.90;81.80;;;;;;5073373;28;19908;-74
2021/04/11 00:04:47;;;;;;;;;;;10.90;81.70;;;;;;5073355;28;20007;-74
2021/04/11 00:07:14;;;;;;;;;;;10.90;82.30;;;;;;5072422;28;19999;-75
2021/04/11 00:09:39;;;;;;;;;;;10.80;82.20;;;;;;5072792;28;19908;-75
2021/04/11 00:12:05;;;;;;;;;;;10.80;82.50;;;;;;5072982;28;20301;-74
2021/04/11 00:14:31;;;;;;;;;;;10.70;82.90;;;;;;5072960;28;19909;-74
2021/04/11 00:16:56;;;;;;;;;;;10.60;83.60;;;;;;5071933;28;19908;-74
2021/04/11 00:19:22;;;;;;;;;;;10.50;83.90;;;;;;5073063;28;20483;-74
2021/04/11 00:21:47;;;;;;;;;;;10.40;84.30;;;;;;5072921;28;19962;-74
2021/04/11 00:24:13;;;;;;;;;;;10.20;84.50;;;;;;5067136;28;19947;-75
2021/04/11 00:26:38;;;;;;;;;;;10.10;85.10;;;;;;5071528;28;19908;-74
2021/04/11 00:29:05;;;;;;;;;;;10.00;85.60;;;;;;5072931;28;20369;-74
2021/04/11 00:31:30;;;;;;;;;;;9.90;87.00;;;;;;5073015;28;19939;-74
2021/04/11 00:33:56;;;;;;;;;;;9.80;87.40;;;;;;5072700;28;19916;-74
2021/04/11 00:36:21;;;;;;;;;;;9.70;87.70;;;;;;5070078;28;19955;-74
2021/04/11 00:38:47;;;;;;;;;;;9.60;88.00;;;;;;5072133;28;19909;-74
2021/04/11 00:41:15;;;;;;;;;;;9.60;88.70;;;;;;5072845;28;20565;-74
2021/04/11 00:43:42;;;;;;;;;;;9.60;88.90;;;;;;5072577;28;19908;-74
2021/04/11 00:46:14;;;;;;;;;;;9.40;89.00;;;;;;5071524;28;20373;-75
2021/04/11 00:48:40;;;;;;;;;;;9.40;89.40;;;;;;5072714;28;20003;-75
2021/04/11 00:51:08;;;;;;;;;;;9.30;89.80;;;;;;5072329;28;20503;-74
2021/04/11 00:53:34;;;;;;;;;;;9.20;90.10;;;;;;5067108;28;19978;-74
2021/04/11 00:56:00;;;;;;;;;;;9.10;90.30;;;;;;5071035;28;20428;-75
2021/04/11 00:58:26;;;;;;;;;;;9.10;90.50;;;;;;5071445;28;19909;-74
2021/04/11 01:00:52;;;;;;;;;;;9.00;90.60;;;;;;5071966;28;19917;-74
2021/04/11 01:03:19;;;;;;;;;;;9.00;90.80;;;;;;5072203;28;20301;-74
2021/04/11 01:05:44;;;;;;;;;;;8.90;90.90;;;;;;5071023;28;19909;-74
2021/04/11 01:08:11;;;;;;;;;;;8.80;91.00;;;;;;5072037;28;20419;-74
2021/04/11 01:10:50;;;;;;;;;;;8.80;91.10;;;;;;5071802;28;19959;-74
2021/04/11 01:13:16;;;;;;;;;;;8.80;91.30;;;;;;5072082;28;20408;-74
2021/04/11 01:15:42;;;;;;;;;;;8.80;91.40;;;;;;5070919;28;19908;-74
2021/04/11 01:18:07;;;;;;;;;;;8.70;91.60;;;;;;5071857;28;19915;-74
2021/04/11 01:20:33;;;;;;;;;;;8.60;91.70;;;;;;5071850;28;20280;-74
2021/04/11 01:23:02;;;;;;;;;;;8.60;91.80;;;;;;5068972;28;19999;-74
2021/04/11 01:25:31;;;;;;;;;;;8.50;92.00;;;;;;5069633;28;19971;-74
2021/04/11 01:27:57;;;;;;;;;;;8.50;92.10;;;;;;5070566;28;19938;-74
2021/04/11 01:30:25;;;;;;;;;;;8.50;92.20;;;;;;5067960;28;19935;-74
2021/04/11 01:32:51;;;;;;;;;;;8.50;92.30;;;;;;5071016;28;19966;-74
2021/04/11 01:35:17;;;;;;;;;;;8.50;92.50;;;;;;5071405;28;20393;-74
2021/04/11 01:37:43;;;;;;;;;;;8.50;92.70;;;;;;5071182;28;19915;-74
2021/04/11 01:40:11;;;;;;;;;;;8.50;92.80;;;;;;5072255;28;20003;-74
2021/04/11 01:42:37;;;;;;;;;;;8.60;92.90;;;;;;5072852;28;19955;-74
2021/04/11 01:45:03;;;;;;;;;;;8.60;93.10;;;;;;5071519;28;20374;-74
2021/04/11 01:47:28;;;;;;;;;;;8.70;93.30;;;;;;5070260;28;19909;-74
2021/04/11 01:49:54;;;;;;;;;;;8.70;93.40;;;;;;5071176;28;19931;-74
2021/04/11 01:52:24;;;;;;;;;;;8.70;93.50;;;;;;5072443;28;20008;-74
2021/04/11 01:54:50;;;;;;;;;;;8.80;93.80;;;;;;5066748;28;20285;-75
2021/04/11 01:57:17;;;;;;;;;;;8.80;93.90;;;;;;5070379;28;19908;-74
2021/04/11 01:59:42;;;;;;;;;;;8.80;94.00;;;;;;5072011;28;19991;-74
2021/04/11 02:02:11;;;;;;;;;;;8.90;94.20;;;;;;5071304;28;19955;-74
2021/04/11 02:04:37;;;;;;;;;;;8.90;94.30;;;;;;5071550;28;20528;-74
2021/04/11 02:07:03;;;;;;;;;;;8.90;94.40;;;;;;5070445;28;20189;-74
2021/04/11 02:09:30;;;;;;;;;;;8.90;94.40;;;;;;5070880;28;19914;-74
2021/04/11 02:11:57;;;;;;;;;;;8.90;94.60;;;;;;5071267;28;19954;-74
2021/04/11 02:14:23;;;;;;;;;;;8.90;94.60;;;;;;5071379;28;19961;-74
2021/04/11 02:16:48;;;;;;;;;;;8.90;94.70;;;;;;5070403;28;19908;-74
2021/04/11 02:19:18;;;;;;;;;;;9.00;94.90;;;;;;5071202;28;19915;-74
2021/04/11 02:21:50;;;;;;;;;;;9.10;95.00;;;;;;5071234;28;19909;-73
2021/04/11 02:24:16;;;;;;;;;;;9.00;94.80;;;;;;5065426;28;19913;-73
2021/04/11 02:26:42;;;;;;;;;;;9.10;94.80;;;;;;5070206;28;19913;-74
2021/04/11 02:29:09;;;;;;;;;;;9.10;94.90;;;;;;5070900;28;20402;-74
2021/04/11 02:31:34;;;;;;;;;;;9.20;94.90;;;;;;5069739;28;19920;-74
2021/04/11 02:34:04;;;;;;;;;;;9.20;94.90;;;;;;5071279;28;19954;-74
2021/04/11 02:36:41;;;;;;;;;;;9.20;95.00;;;;;;5070204;28;19916;-73
2021/04/11 02:39:09;;;;;;;;;;;9.20;95.10;;;;;;5070857;28;19908;-74
2021/04/11 02:41:35;;;;;;;;;;;9.20;95.00;;;;;;5070958;28;19909;-74
2021/04/11 02:44:00;;;;;;;;;;;9.20;95.00;;;;;;5071008;28;19915;-74
2021/04/11 02:46:26;;;;;;;;;;;9.20;95.10;;;;;;5070076;28;19920;-74
2021/04/11 02:48:54;;;;;;;;;;;9.20;95.00;;;;;;5071243;28;20353;-74
2021/04/11 02:51:21;;;;;;;;;;;9.20;95.00;;;;;;5070890;28;19958;-74
2021/04/11 02:53:47;;;;;;;;;;;9.20;95.20;;;;;;5065441;28;19908;-74
2021/04/11 02:56:15;;;;;;;;;;;9.20;95.40;;;;;;5068300;28;19909;-74
2021/04/11 02:58:41;;;;;;;;;;;9.20;95.60;;;;;;5071147;28;19908;-74
2021/04/11 03:01:10;;;;;;;;;;;9.20;95.70;;;;;;5071123;28;19909;-74
2021/04/11 03:03:35;;;;;;;;;;;9.20;95.70;;;;;;5070585;28;19915;-74
2021/04/11 03:06:03;;;;;;;;;;;9.20;95.50;;;;;;5068277;28;19909;-74
2021/04/11 03:08:32;;;;;;;;;;;9.20;95.70;;;;;;5070594;28;19912;-74
2021/04/11 03:11:12;;;;;;;;;;;9.20;95.80;;;;;;5069994;28;19958;-75
2021/04/11 03:13:38;;;;;;;;;;;9.30;96.30;;;;;;5070448;28;19908;-74
2021/04/11 03:16:04;;;;;;;;;;;9.20;96.20;;;;;;5069485;28;19966;-74
2021/04/11 03:18:29;;;;;;;;;;;9.20;96.20;;;;;;5070642;28;19908;-74
2021/04/11 03:20:56;;;;;;;;;;;9.20;96.10;;;;;;5072480;28;20282;-73
2021/04/11 03:23:21;;;;;;;;;;;9.20;96.10;;;;;;5068647;28;19923;-73
2021/04/11 03:25:50;;;;;;;;;;;9.20;96.20;;;;;;5085571;28;19912;-74
2021/04/11 03:28:25;;;;;;;;;;;9.20;96.20;;;;;;5093216;28;19908;-74
2021/04/11 03:30:57;;;;;;;;;;;9.20;96.20;;;;;;5094591;28;19912;-74
2021/04/11 03:33:22;;;;;;;;;;;9.20;96.00;;;;;;5094824;28;20388;-74
2021/04/11 03:35:49;;;;;;;;;;;9.20;96.10;;;;;;5093109;28;19916;-74
2021/04/11 03:38:17;;;;;;;;;;;9.10;96.40;;;;;;5094308;28;19934;-73
2021/04/11 03:40:43;;;;;;;;;;;9.10;96.20;;;;;;5094002;28;19908;-74
2021/04/11 03:43:14;;;;;;;;;;;9.10;96.30;;;;;;5094463;28;19909;-74
2021/04/11 03:45:39;;;;;;;;;;;9.00;96.30;;;;;;5093453;28;19915;-74
2021/04/11 03:48:14;;;;;;;;;;;9.00;96.50;;;;;;5094011;28;20269;-74
2021/04/11 03:50:45;;;;;;;;;;;9.10;96.70;;;;;;5094117;28;19919;-74
2021/04/11 03:53:22;;;;;;;;;;;9.10;96.70;;;;;;5084446;28;20350;-74
2021/04/11 03:55:48;;;;;;;;;;;9.10;96.80;;;;;;5064955;28;19909;-75
2021/04/11 03:58:17;;;;;;;;;;;9.10;96.80;;;;;;5073607;28;20058;-74
2021/04/11 04:00:51;;;;;;;;;;;9.10;96.90;;;;;;5073688;28;19915;-74
2021/04/11 04:03:19;;;;;;;;;;;9.10;97.00;;;;;;5073566;28;19918;-74
2021/04/11 04:05:46;;;;;;;;;;;9.10;97.10;;;;;;5072799;28;20003;-74
2021/04/11 04:08:11;;;;;;;;;;;9.10;96.90;;;;;;5073377;28;20293;-74
2021/04/11 04:10:42;;;;;;;;;;;9.10;97.20;;;;;;5073185;28;19912;-74
2021/04/11 04:13:07;;;;;;;;;;;9.10;97.30;;;;;;5073446;28;19995;-74
2021/04/11 04:15:43;;;;;;;;;;;9.10;97.20;;;;;;5072987;28;20416;-74
2021/04/11 04:18:18;;;;;;;;;;;9.10;97.00;;;;;;5073202;28;19909;-74
2021/04/11 04:21:06;;;;;;;;;;;9.10;97.30;;;;;;5072138;28;19959;-74
2021/04/11 04:23:41;;;;;;;;;;;9.20;97.40;;;;;;5067910;28;19913;-73
2021/04/11 04:26:09;;;;;;;;;;;9.10;97.50;;;;;;5071493;28;19919;-74
2021/04/11 04:28:45;;;;;;;;;;;9.10;97.50;;;;;;5073065;28;19909;-74
2021/04/11 04:31:29;;;;;;;;;;;9.10;97.60;;;;;;5073030;28;19919;-74
2021/04/11 04:33:59;;;;;;;;;;;9.10;97.70;;;;;;5073105;28;20100;-74
2021/04/11 04:36:34;;;;;;;;;;;9.00;97.80;;;;;;5071727;28;19916;-74
2021/04/11 04:39:18;;;;;;;;;;;9.00;97.90;;;;;;5073056;28;19912;-74
2021/04/11 04:42:04;;;;;;;;;;;9.10;97.90;;;;;;5072962;28;19909;-74
2021/04/11 04:44:34;;;;;;;;;;;9.00;97.90;;;;;;5071204;28;20389;-74
2021/04/11 04:47:17;;;;;;;;;;;9.00;98.00;;;;;;5071798;28;19909;-74
2021/04/11 04:49:52;;;;;;;;;;;8.90;98.00;;;;;;5071397;28;19999;-74
2021/04/11 04:52:19;;;;;;;;;;;9.00;98.00;;;;;;5072663;28;19912;-74
2021/04/11 04:54:50;;;;;;;;;;;9.00;98.30;;;;;;5066767;28;20235;-74
2021/04/11 04:57:30;;;;;;;;;;;9.00;98.40;;;;;;5071784;28;19952;-74
2021/04/11 05:00:01;;;;;;;;;;;8.90;98.50;;;;;;5072513;28;20002;-74
2021/04/11 05:02:30;;;;;;;;;;;8.90;98.50;;;;;;5072207;28;19915;-74
2021/04/11 05:04:58;;;;;;;;;;;8.90;98.80;;;;;;5072374;28;19976;-74
2021/04/11 05:07:27;;;;;;;;;;;8.90;98.90;;;;;;5071178;28;19935;-74
2021/04/11 05:10:02;;;;;;;;;;;8.80;99.00;;;;;;5071909;28;19908;-73
2021/04/11 05:12:40;;;;;;;;;;;8.90;99.00;;;;;;5072138;28;19912;-74
2021/04/11 05:15:10;;;;;;;;;;;8.90;98.80;;;;;;5072254;28;19923;-74
2021/04/11 05:17:38;;;;;;;;;;;9.00;98.90;;;;;;5071011;28;19909;-74
2021/04/11 05:20:05;;;;;;;;;;;9.00;98.80;;;;;;5072092;28;20225;-74
2021/04/11 05:22:35;;;;;;;;;;;9.10;99.10;;;;;;5071999;28;19912;-73
2021/04/11 05:25:15;;;;;;;;;;;9.20;98.90;;;;;;5065998;28;19966;-74
2021/04/11 05:27:46;;;;;;;;;;;9.20;98.90;;;;;;5070918;28;19908;-74
2021/04/11 05:30:37;;;;;;;;;;;9.20;98.90;;;;;;5071859;28;19940;-73
2021/04/11 05:33:03;;;;;;;;;;;9.20;98.90;;;;;;5071392;28;19961;-74
2021/04/11 05:35:31;;;;;;;;;;;9.30;99.10;;;;;;5071582;28;19920;-74
2021/04/11 05:38:04;;;;;;;;;;;9.30;99.00;;;;;;5071132;28;20366;-74
2021/04/11 05:40:32;;;;;;;;;;;9.40;99.10;;;;;;5071533;28;20003;-74
2021/04/11 05:43:04;;;;;;;;;;;9.40;99.10;;;;;;5071453;28;19908;-74
2021/04/11 05:45:32;;;;;;;;;;;9.50;99.00;;;;;;5071660;28;19908;-74
2021/04/11 05:48:07;;;;;;;;;;;9.60;99.10;;;;;;5070849;28;20359;-74
2021/04/11 05:50:36;;;;;;;;;;;9.60;99.10;;;;;;5071507;28;19923;-74
2021/04/11 05:53:05;;;;;;;;;;;9.80;99.10;;;;;;5067742;28;20047;-74
2021/04/11 05:55:32;;;;;;;;;;;9.80;99.00;;;;;;5069414;28;19909;-75
2021/04/11 05:58:01;;;;;;;;;;;9.80;99.10;;;;;;5070752;28;19998;-74
2021/04/11 06:00:30;;;;;;;;;;;9.90;99.20;;;;;;5071585;28;20366;-74
2021/04/11 06:03:00;;;;;;;;;;;10.10;98.50;;;;;;5071287;28;19908;-74
2021/04/11 06:05:31;;;;;;;;;;;10.20;98.80;;;;;;5071248;28;20395;-74
2021/04/11 06:08:05;;;;;;;;;;;10.30;99.50;;;;;;5070273;28;19920;-74
2021/04/11 06:10:44;;;;;;;;;;;10.50;99.60;;;;;;5071128;28;19997;-74
2021/04/11 06:13:10;;;;;;;;;;;10.60;99.30;;;;;;5071076;28;20009;-74
2021/04/11 06:15:53;;;;;;;;;;;10.60;98.80;;;;;;5070626;28;19967;-74
2021/04/11 06:18:19;;;;;;;;;;;10.70;98.50;;;;;;5071480;28;19909;-75
2021/04/11 06:20:46;;;;;;;;;;;10.60;98.10;;;;;;5071209;28;19909;-74
2021/04/11 06:23:18;;;;;;;;;;;10.70;97.80;;;;;;5066098;28;19909;-74
2021/04/11 06:26:02;;;;;;;;;;;10.80;97.90;;;;;;5062073;28;19954;-74
2021/04/11 06:28:44;;;;;;;;;;;10.90;97.70;;;;;;5070962;28;19908;-74
2021/04/11 06:31:12;;;;;;;;;;;11.00;97.40;;;;;;5071059;28;20011;-74
2021/04/11 06:33:45;;;;;;;;;;;11.20;97.60;;;;;;5070763;28;20007;-74
2021/04/11 06:36:14;;;;;;;;;;;11.30;98.00;;;;;;5069810;28;19923;-74
2021/04/11 06:38:42;;;;;;;;;;;11.60;98.10;;;;;;5070918;28;19938;-74
2021/04/11 06:41:14;;;;;;;;;;;11.70;97.30;;;;;;5070694;28;19909;-74
2021/04/11 06:43:43;;;;;;;;;;;11.80;96.80;;;;;;5070749;28;19959;-74
2021/04/11 06:46:33;;;;;;;;;;;11.90;96.60;;;;;;5069876;28;19961;-74
2021/04/11 06:48:58;;;;;;;;;;;12.10;96.80;;;;;;5071108;28;19909;-74
2021/04/11 06:51:33;;;;;;;;;;;12.30;97.30;;;;;;5070555;28;20369;-74
2021/04/11 06:54:19;;;;;;;;;;;12.40;95.20;;;;;;5065320;28;19966;-74
2021/04/11 06:57:02;;;;;;;;;;;12.60;95.70;;;;;;5072428;28;19916;-74
2021/04/11 06:59:40;;;;;;;;;;;12.90;96.10;;;;;;5074616;28;19915;-74
2021/04/11 07:02:11;;;;;;;;;;;13.00;94.00;;;;;;5073159;28;19908;-74
2021/04/11 07:04:49;;;;;;;;;;;13.20;93.50;;;;;;5074656;28;20348;-74
2021/04/11 07:07:14;;;;;;;;;;;13.40;94.20;;;;;;5073473;28;20354;-74
2021/04/11 07:10:06;;;;;;;;;;;13.60;93.50;;;;;;5059663;28;19912;-74
2021/04/11 07:12:46;;;;;;;;;;;13.70;93.00;;;;;;5081008;28;19935;-74
2021/04/11 07:15:11;;;;;;;;;;;13.80;92.50;;;;;;5074569;28;19960;-74
2021/04/11 07:17:46;;;;;;;;;;;13.90;93.00;;;;;;5073109;28;19963;-74
2021/04/11 07:20:20;;;;;;;;;;;14.10;91.80;;;;;;5074482;28;19994;-74
2021/04/11 07:22:45;;;;;;;;;;;14.20;92.40;;;;;;5073217;28;19909;-74
2021/04/11 07:25:18;;;;;;;;;;;14.40;91.50;;;;;;5069873;28;19962;-74
2021/04/11 07:27:47;;;;;;;;;;;14.80;90.10;;;;;;5073173;28;19932;-74
2021/04/11 07:30:17;;;;;;;;;;;15.60;89.50;;;;;;5074298;28;19917;-74
2021/04/11 07:32:54;;;;;;;;;;;16.40;88.30;;;;;;5074268;28;19959;-75
2021/04/11 07:35:29;;;;;;;;;;;17.20;85.50;;;;;;5073948;28;19992;-75
2021/04/11 07:37:54;;;;;;;;;;;17.80;80.20;;;;;;5073025;28;19955;-74
2021/04/11 07:40:36;;;;;;;;;;;18.20;78.70;;;;;;5072363;28;19909;-75
2021/04/11 07:43:20;;;;;;;;;;;18.40;78.70;;;;;;5072696;28;19908;-75
2021/04/11 07:46:05;;;;;;;;;;;18.80;78.10;;;;;;5072756;28;19909;-76
2021/04/11 07:48:45;;;;;;;;;;;19.10;77.00;;;;;;5073625;28;19908;-75
2021/04/11 07:51:31;;;;;;;;;;;19.30;75.70;;;;;;5073577;28;19964;-75
2021/04/11 07:54:15;;;;;;;;;;;19.60;74.50;;;;;;5070843;28;19912;-75
2021/04/11 07:56:59;;;;;;;;;;;19.90;74.00;;;;;;5072365;28;19909;-75
2021/04/11 07:59:43;;;;;;;;;;;20.20;74.20;;;;;;5073673;28;19909;-75
2021/04/11 08:02:18;;;;;;;;;;;20.40;71.90;;;;;;5073464;28;20003;-75
2021/04/11 08:05:02;;;;;;;;;;;20.50;72.60;;;;;;5073327;28;19916;-76
2021/04/11 08:07:27;;;;;;;;;;;20.70;72.90;;;;;;5072163;28;19915;-76
2021/04/11 08:10:02;;;;;;;;;;;20.80;71.50;;;;;;5073261;28;20308;-76
2021/04/11 08:12:46;;;;;;;;;;;20.60;70.80;;;;;;5073250;28;19955;-75
2021/04/11 08:15:26;;;;;;;;;;;20.40;72.20;;;;;;5073206;28;19951;-76
2021/04/11 08:18:10;;;;;;;;;;;20.00;72.40;;;;;;5072209;28;19913;-76
2021/04/11 08:20:38;;;;;;;;;;;19.50;73.20;;;;;;5073061;28;20098;-76
2021/04/11 08:23:24;;;;;;;;;;;19.40;74.10;;;;;;5069270;28;20003;-76
2021/04/11 08:26:04;;;;;;;;;;;19.60;75.80;;;;;;5073331;28;20346;-76
2021/04/11 08:28:42;;;;;;;;;;;19.80;72.90;;;;;;5073058;28;19915;-77
2021/04/11 08:31:07;;;;;;;;;;;19.80;72.80;;;;;;5073152;28;19959;-76
2021/04/11 08:33:51;;;;;;;;;;;19.60;74.30;;;;;;5073073;28;19912;-76
2021/04/11 08:36:26;;;;;;;;;;;19.40;74.90;;;;;;5071046;28;19973;-76
2021/04/11 08:39:10;;;;;;;;;;;19.00;73.90;;;;;;5072077;28;19908;-76
2021/04/11 08:41:50;;;;;;;;;;;18.70;73.30;;;;;;5072533;28;19958;-75
2021/04/11 08:44:20;;;;;;;;;;;18.30;74.40;;;;;;5072309;28;20416;-75
2021/04/11 08:46:49;;;;;;;;;;;18.00;75.40;;;;;;5071559;28;19981;-75
2021/04/11 08:49:26;;;;;;;;;;;17.80;75.90;;;;;;5071889;28;19915;-76
2021/04/11 08:51:57;;;;;;;;;;;17.50;77.50;;;;;;5072556;28;19954;-75
2021/04/11 08:54:51;;;;;;;;;;;17.20;77.60;;;;;;5066810;28;19916;-75
2021/04/11 08:57:40;;;;;;;;;;;17.00;79.20;;;;;;5070445;28;20377;-75
2021/04/11 09:00:10;;;;;;;;;;;16.90;77.30;;;;;;5071205;28;19977;-75
2021/04/11 09:02:36;;;;;;;;;;;16.90;80.60;;;;;;5071924;28;20441;-75
2021/04/11 09:05:22;;;;;;;;;;;16.80;79.50;;;;;;5072147;28;20050;-75
2021/04/11 09:08:05;;;;;;;;;;;16.80;79.90;;;;;;5070050;28;20267;-76
2021/04/11 09:10:40;;;;;;;;;;;16.80;78.60;;;;;;5071675;28;19957;-76
2021/04/11 09:13:05;;;;;;;;;;;16.80;79.70;;;;;;5072106;28;20349;-75
2021/04/11 09:15:36;;;;;;;;;;;16.80;80.70;;;;;;5071674;28;19916;-76
2021/04/11 09:18:02;;;;;;;;;;;16.80;81.20;;;;;;5070778;28;19917;-75
2021/04/11 09:20:46;;;;;;;;;;;17.00;81.00;;;;;;5072005;28;20278;-75
2021/04/11 09:23:30;;;;;;;;;;;17.20;80.60;;;;;;5067138;28;20008;-76
2021/04/11 09:26:14;;;;;;;;;;;17.50;80.50;;;;;;5064218;28;19909;-76
2021/04/11 09:28:54;;;;;;;;;;;17.80;77.40;;;;;;5071609;28;19915;-76
2021/04/11 09:31:35;;;;;;;;;;;17.90;77.90;;;;;;5071634;28;20289;-75
2021/04/11 09:34:14;;;;;;;;;;;17.90;78.20;;;;;;5071487;28;19908;-76
2021/04/11 09:36:58;;;;;;;;;;;18.00;77.70;;;;;;5070392;28;19970;-76
2021/04/11 09:39:42;;;;;;;;;;;18.00;76.80;;;;;;5071593;28;19908;-75
2021/04/11 09:42:20;;;;;;;;;;;18.30;74.80;;;;;;5071221;28;19916;-76
2021/04/11 09:44:59;;;;;;;;;;;18.60;77.10;;;;;;5071459;28;20282;-75
2021/04/11 09:47:33;;;;;;;;;;;19.00;77.60;;;;;;5070577;28;19912;-76
2021/04/11 09:50:17;;;;;;;;;;;19.40;74.10;;;;;;5071507;28;19909;-76
2021/04/11 09:52:55;;;;;;;;;;;19.80;75.40;;;;;;5069099;28;19912;-76
2021/04/11 09:55:39;;;;;;;;;;;20.50;75.00;;;;;;5068055;28;20011;-76
2021/04/11 09:58:04;;;;;;;;;;;21.20;71.90;;;;;;5071390;28;19995;-76
2021/04/11 10:00:40;;;;;;;;;;;21.80;69.70;;;;;;5070060;28;20400;-76
2021/04/11 10:03:14;;;;;;;;;;;22.30;69.20;;;;;;5071035;28;19916;-76
2021/04/11 10:05:45;;;;;;;;;;;22.70;67.60;;;;;;5070035;28;19913;-76
2021/04/11 10:08:26;;;;;;;;;;;23.00;68.60;;;;;;5071094;28;20010;-76
2021/04/11 10:11:06;;;;;;;;;;;23.50;67.60;;;;;;5071072;28;19923;-76
2021/04/11 10:13:37;;;;;;;;;;;23.70;62.60;;;;;;5070959;28;19908;-76
2021/04/11 10:16:24;;;;;;;;;;;23.80;64.40;;;;;;5069788;28;19912;-76
2021/04/11 10:19:08;;;;;;;;;;;23.60;63.90;;;;;;5070837;28;19935;-76
2021/04/11 10:21:45;;;;;;;;;;;23.60;62.50;;;;;;5069729;28;19920;-76
2021/04/11 10:24:14;;;;;;;;;;;23.40;62.00;;;;;;5065405;28;20285;-76
2021/04/11 10:26:42;;;;;;;;;;;23.00;63.10;;;;;;5063207;28;19913;-75
2021/04/11 10:29:13;;;;;;;;;;;22.70;63.80;;;;;;5061153;28;19917;-76
2021/04/11 10:31:48;;;;;;;;;;;22.20;63.40;;;;;;5067607;28;20457;-75
2021/04/11 10:34:19;;;;;;;;;;;21.70;64.20;;;;;;5068044;28;20436;-76
2021/04/11 10:36:47;;;;;;;;;;;21.10;62.20;;;;;;5070008;28;20009;-75
2021/04/11 10:39:16;;;;;;;;;;;20.90;66.10;;;;;;5070176;28;20011;-76
2021/04/11 10:41:50;;;;;;;;;;;20.40;67.10;;;;;;5070486;28;19970;-75
2021/04/11 10:44:33;;;;;;;;;;;20.20;69.30;;;;;;5070645;28;19916;-76
2021/04/11 10:46:58;;;;;;;;;;;20.40;71.00;;;;;;5069605;28;19908;-75
2021/04/11 10:49:42;;;;;;;;;;;20.80;67.20;;;;;;5071437;28;20333;-75
2021/04/11 10:52:16;;;;;;;;;;;21.00;68.20;;;;;;5067556;28;19923;-76
2021/04/11 10:54:41;;;;;;;;;;;20.90;65.60;;;;;;5062368;28;19912;-75
2021/04/11 10:57:10;;;;;;;;;;;20.90;68.00;;;;;;5068003;28;19912;-75
2021/04/11 10:59:49;;;;;;;;;;;20.80;68.30;;;;;;5069510;28;19913;-76
2021/04/11 11:02:33;;;;;;;;;;;20.70;68.40;;;;;;5070640;28;19915;-75
2021/04/11 11:05:17;;;;;;;;;;;20.40;68.10;;;;;;5069481;28;20396;-75
2021/04/11 11:08:01;;;;;;;;;;;20.20;68.30;;;;;;5069469;28;19915;-75
2021/04/11 11:10:46;;;;;;;;;;;20.00;68.40;;;;;;5070395;28;19912;-75
2021/04/11 11:13:16;;;;;;;;;;;20.00;68.60;;;;;;5070509;28;19909;-76
2021/04/11 11:15:48;;;;;;;;;;;20.10;69.70;;;;;;5069318;28;19954;-76
2021/04/11 11:18:19;;;;;;;;;;;20.60;72.50;;;;;;5070550;28;20327;-76
2021/04/11 11:20:45;;;;;;;;;;;21.50;69.10;;;;;;5070495;28;19908;-76
2021/04/11 11:23:20;;;;;;;;;;;22.10;67.30;;;;;;5065647;28;20271;-76
2021/04/11 11:26:04;;;;;;;;;;;22.40;64.70;;;;;;5061514;28;19915;-75
2021/04/11 11:28:48;;;;;;;;;;;22.10;64.40;;;;;;5070436;28;19909;-75
2021/04/11 11:31:28;;;;;;;;;;;21.90;64.90;;;;;;5070389;28;19960;-75
2021/04/11 11:33:53;;;;;;;;;;;21.50;65.70;;;;;;5070302;28;19944;-75
2021/04/11 11:36:32;;;;;;;;;;;21.30;66.00;;;;;;5069220;28;19947;-76
2021/04/11 11:39:03;;;;;;;;;;;21.10;66.30;;;;;;5069785;28;20362;-75
2021/04/11 11:41:37;;;;;;;;;;;21.00;67.30;;;;;;5071515;28;19913;-76
2021/04/11 11:44:10;;;;;;;;;;;21.00;68.20;;;;;;5073373;28;19908;-75
2021/04/11 11:46:52;;;;;;;;;;;21.10;67.90;;;;;;5072853;28;20362;-76
2021/04/11 11:49:26;;;;;;;;;;;21.50;69.60;;;;;;5073712;28;20373;-76
2021/04/11 11:52:11;;;;;;;;;;;22.10;66.00;;;;;;5073299;28;20508;-76
2021/04/11 11:54:40;;;;;;;;;;;22.50;64.50;;;;;;5067976;28;19909;-75
2021/04/11 11:57:09;;;;;;;;;;;23.00;63.80;;;;;;5071996;28;19909;-75
2021/04/11 11:59:39;;;;;;;;;;;23.40;64.70;;;;;;5073328;28;19908;-76
2021/04/11 12:02:23;;;;;;;;;;;23.70;61.40;;;;;;5072996;28;19955;-76
2021/04/11 12:04:55;;;;;;;;;;;23.70;60.10;;;;;;5073665;28;19952;-76
2021/04/11 12:07:23;;;;;;;;;;;23.50;59.20;;;;;;5072225;28;19909;-76
2021/04/11 12:09:57;;;;;;;;;;;23.40;61.10;;;;;;5073348;28;19913;-75
2021/04/11 12:12:25;;;;;;;;;;;23.30;60.60;;;;;;5072908;28;19916;-76
2021/04/11 12:14:57;;;;;;;;;;;23.20;60.90;;;;;;5073136;28;19909;-76
2021/04/11 12:17:48;;;;;;;;;;;23.20;62.90;;;;;;5072216;28;20404;-75
2021/04/11 12:20:17;;;;;;;;;;;23.30;60.00;;;;;;5063537;28;20423;-76
2021/04/11 12:22:46;;;;;;;;;;;23.30;61.50;;;;;;5072207;28;19909;-76
2021/04/11 12:25:14;;;;;;;;;;;23.20;61.70;;;;;;5068658;28;19909;-76
2021/04/11 12:27:40;;;;;;;;;;;23.10;62.50;;;;;;5051561;28;20282;-73
2021/04/11 12:30:07;;;;;;;;;;;23.10;62.10;;;;;;5051484;28;19908;-73
2021/04/11 12:32:44;;;;;;;;;;;22.80;61.80;;;;;;5052756;28;20374;-73
2021/04/11 12:35:12;;;;;;;;;;;22.30;62.70;;;;;;5052637;28;19992;-73
2021/04/11 12:37:47;;;;;;;;;;;21.90;62.90;;;;;;5051506;28;19913;-73
2021/04/11 12:40:31;;;;;;;;;;;21.60;63.80;;;;;;5052996;28;19915;-73
2021/04/11 12:43:02;;;;;;;;;;;21.40;64.40;;;;;;5052380;28;20350;-73
2021/04/11 12:45:28;;;;;;;;;;;21.00;65.70;;;;;;5052493;28;19915;-73
2021/04/11 12:47:53;;;;;;;;;;;20.90;65.40;;;;;;5051619;28;20306;-75
2021/04/11 12:50:28;;;;;;;;;;;20.80;67.20;;;;;;5052709;28;19960;-75
2021/04/11 12:52:57;;;;;;;;;;;20.90;66.50;;;;;;5051367;28;19943;-75
2021/04/11 12:55:25;;;;;;;;;;;21.00;66.10;;;;;;5069605;28;19909;-76
2021/04/11 12:57:56;;;;;;;;;;;21.10;67.90;;;;;;5070963;28;19909;-76
2021/04/11 13:00:24;;;;;;;;;;;21.00;64.70;;;;;;5072161;28;19932;-75
2021/04/11 13:03:01;;;;;;;;;;;20.90;67.80;;;;;;5072269;28;20359;-75
2021/04/11 13:05:43;;;;;;;;;;;20.70;66.80;;;;;;5072303;28;19913;-76
2021/04/11 13:08:15;;;;;;;;;;;20.60;66.10;;;;;;5072250;28;19948;-75
2021/04/11 13:10:51;;;;;;;;;;;20.50;67.60;;;;;;5071984;28;19959;-76
2021/04/11 13:13:21;;;;;;;;;;;20.50;65.80;;;;;;5071919;28;19919;-76
2021/04/11 13:15:52;;;;;;;;;;;20.50;67.50;;;;;;5071091;28;19974;-75
2021/04/11 13:18:24;;;;;;;;;;;20.40;67.10;;;;;;5071873;28;19938;-75
2021/04/11 13:20:49;;;;;;;;;;;20.30;67.40;;;;;;5071779;28;19935;-76
2021/04/11 13:23:21;;;;;;;;;;;20.30;67.40;;;;;;5066445;28;19909;-76
2021/04/11 13:26:05;;;;;;;;;;;20.20;67.60;;;;;;5090369;28;19999;-75
2021/04/11 13:28:34;;;;;;;;;;;20.00;67.80;;;;;;5091850;28;19908;-76
2021/04/11 13:31:12;;;;;;;;;;;20.00;67.80;;;;;;5091795;28;19916;-75
2021/04/11 13:33:44;;;;;;;;;;;19.90;69.00;;;;;;5092163;28;20336;-75
2021/04/11 13:36:20;;;;;;;;;;;19.80;69.70;;;;;;5090746;28;19923;-76
2021/04/11 13:38:45;;;;;;;;;;;19.80;68.50;;;;;;5091818;28;19931;-75
2021/04/11 13:41:23;;;;;;;;;;;19.90;68.80;;;;;;5091619;28;20376;-75
2021/04/11 13:43:59;;;;;;;;;;;20.00;69.50;;;;;;5091410;28;19908;-75
2021/04/11 13:46:25;;;;;;;;;;;20.10;68.70;;;;;;5090722;28;20353;-75
2021/04/11 13:48:57;;;;;;;;;;;20.30;70.30;;;;;;5091160;28;20018;-75
2021/04/11 13:51:36;;;;;;;;;;;20.30;67.30;;;;;;5091617;28;19912;-75
2021/04/11 13:54:08;;;;;;;;;;;20.30;67.90;;;;;;5074165;28;19909;-75
2021/04/11 13:56:52;;;;;;;;;;;20.30;68.70;;;;;;5070042;28;19912;-76
2021/04/11 13:59:23;;;;;;;;;;;20.10;67.60;;;;;;5071270;28;20471;-75
2021/04/11 14:01:55;;;;;;;;;;;20.00;67.00;;;;;;5071245;28;20276;-75
2021/04/11 14:04:56;;;;;;;;;;;19.90;68.40;;;;;;5070873;28;19909;-75
2021/04/11 14:07:25;;;;;;;;;;;19.90;68.40;;;;;;5067608;28;19909;-75
2021/04/11 14:09:55;;;;;;;;;;;19.90;70.20;;;;;;5070682;28;19916;-75
2021/04/11 14:12:31;;;;;;;;;;;20.10;68.20;;;;;;5070636;28;20369;-76
2021/04/11 14:15:08;;;;;;;;;;;20.30;68.60;;;;;;5071104;28;19913;-75
2021/04/11 14:17:33;;;;;;;;;;;20.50;67.50;;;;;;5069849;28;19908;-75
2021/04/11 14:20:08;;;;;;;;;;;20.70;68.20;;;;;;5071230;28;19908;-76
2021/04/11 14:22:36;;;;;;;;;;;20.70;66.40;;;;;;5070885;28;20002;-75
2021/04/11 14:25:10;;;;;;;;;;;21.00;65.60;;;;;;5065473;28;20388;-75
2021/04/11 14:27:41;;;;;;;;;;;21.10;65.40;;;;;;5069345;28;20012;-73
2021/04/11 14:30:25;;;;;;;;;;;21.30;65.10;;;;;;5070736;28;20358;-73
2021/04/11 14:32:56;;;;;;;;;;;21.40;66.50;;;;;;5070797;28;19913;-74
2021/04/11 14:35:27;;;;;;;;;;;21.40;65.30;;;;;;5070622;28;20392;-72
2021/04/11 14:37:55;;;;;;;;;;;21.40;65.00;;;;;;5069876;28;19915;-74
2021/04/11 14:40:24;;;;;;;;;;;21.20;65.10;;;;;;5070570;28;19928;-74
2021/04/11 14:43:02;;;;;;;;;;;21.10;66.60;;;;;;5070519;28;19924;-75
2021/04/11 14:45:30;;;;;;;;;;;20.90;65.80;;;;;;5070564;28;20370;-75
2021/04/11 14:47:56;;;;;;;;;;;20.60;67.10;;;;;;5069872;28;19908;-75
2021/04/11 14:50:26;;;;;;;;;;;20.40;67.00;;;;;;5070652;28;19909;-75
2021/04/11 14:53:03;;;;;;;;;;;20.20;67.70;;;;;;5068400;28;19909;-75